sensor_id;sensor_type;location;lat;lon;timestamp;pressure;altitude;pressure_sealevel;temperature
80537;BMP280;69867;47.074;15.404;2023-10-31T00:01:30;96006.56;;;14.03
80537;BMP280;69867;47.074;15.404;2023-10-31T00:03:55;95992.22;;;13.96
80537;BMP280;69867;47.074;15.404;2023-10-31T00:06:22;95997.91;;;13.89
80537;BMP280;69867;47.074;15.404;2023-10-31T00:08:47;95982.63;;;13.83
80537;BMP280;69867;47.074;15.404;2023-10-31T00:11:12;95986.56;;;13.75
80537;BMP280;69867;47.074;15.404;2023-10-31T00:13:38;95984.22;;;13.71
80537;BMP280;69867;47.074;15.404;2023-10-31T00:16:03;95970.53;;;13.67
80537;BMP280;69867;47.074;15.404;2023-10-31T00:18:28;95972.56;;;13.62
80537;BMP280;69867;47.074;15.404;2023-10-31T00:20:54;95973.69;;;13.58
80537;BMP280;69867;47.074;15.404;2023-10-31T00:23:19;95993.25;;;13.51
80537;BMP280;69867;47.074;15.404;2023-10-31T00:25:44;95999.50;;;13.49
80537;BMP280;69867;47.074;15.404;2023-10-31T00:28:10;95988.22;;;13.48
80537;BMP280;69867;47.074;15.404;2023-10-31T00:30:35;95977.78;;;13.48
80537;BMP280;69867;47.074;15.404;2023-10-31T00:33:00;95983.00;;;13.48
80537;BMP280;69867;47.074;15.404;2023-10-31T00:35:26;95995.50;;;13.43
80537;BMP280;69867;47.074;15.404;2023-10-31T00:37:51;95986.75;;;13.44
80537;BMP280;69867;47.074;15.404;2023-10-31T00:40:16;95987.84;;;13.40
80537;BMP280;69867;47.074;15.404;2023-10-31T00:42:42;96003.31;;;13.43
80537;BMP280;69867;47.074;15.404;2023-10-31T00:45:08;95978.91;;;13.44
80537;BMP280;69867;47.074;15.404;2023-10-31T00:47:33;95990.94;;;13.47
80537;BMP280;69867;47.074;15.404;2023-10-31T00:49:59;95993.44;;;13.48
80537;BMP280;69867;47.074;15.404;2023-10-31T00:52:24;95985.44;;;13.51
80537;BMP280;69867;47.074;15.404;2023-10-31T00:54:49;95985.25;;;13.54
80537;BMP280;69867;47.074;15.404;2023-10-31T00:57:15;95979.28;;;13.52
80537;BMP280;69867;47.074;15.404;2023-10-31T00:59:40;95971.28;;;13.55
80537;BMP280;69867;47.074;15.404;2023-10-31T01:02:05;95979.84;;;13.57
80537;BMP280;69867;47.074;15.404;2023-10-31T01:04:31;95987.50;;;13.60
80537;BMP280;69867;47.074;15.404;2023-10-31T01:06:56;95960.00;;;13.69
80537;BMP280;69867;47.074;15.404;2023-10-31T01:09:21;95974.44;;;13.74
80537;BMP280;69867;47.074;15.404;2023-10-31T01:11:47;95963.53;;;13.82
80537;BMP280;69867;47.074;15.404;2023-10-31T01:14:12;95980.56;;;13.88
80537;BMP280;69867;47.074;15.404;2023-10-31T01:16:40;95981.41;;;13.88
80537;BMP280;69867;47.074;15.404;2023-10-31T01:19:05;95974.22;;;13.92
80537;BMP280;69867;47.074;15.404;2023-10-31T01:21:31;95984.69;;;13.92
80537;BMP280;69867;47.074;15.404;2023-10-31T01:23:56;95992.50;;;13.92
80537;BMP280;69867;47.074;15.404;2023-10-31T01:26:21;95988.13;;;13.92
80537;BMP280;69867;47.074;15.404;2023-10-31T01:28:46;95999.41;;;13.93
80537;BMP280;69867;47.074;15.404;2023-10-31T01:31:12;95994.19;;;13.93
80537;BMP280;69867;47.074;15.404;2023-10-31T01:33:37;95995.75;;;13.95
80537;BMP280;69867;47.074;15.404;2023-10-31T01:36:03;96002.56;;;13.98
80537;BMP280;69867;47.074;15.404;2023-10-31T01:38:28;95998.66;;;14.05
80537;BMP280;69867;47.074;15.404;2023-10-31T01:40:53;95994.72;;;14.12
80537;BMP280;69867;47.074;15.404;2023-10-31T01:43:36;95998.53;;;14.21
80537;BMP280;69867;47.074;15.404;2023-10-31T01:46:01;95989.38;;;14.28
80537;BMP280;69867;47.074;15.404;2023-10-31T01:48:29;95976.78;;;14.49
80537;BMP280;69867;47.074;15.404;2023-10-31T01:50:56;95964.91;;;14.70
80537;BMP280;69867;47.074;15.404;2023-10-31T01:53:22;95953.66;;;14.82
80537;BMP280;69867;47.074;15.404;2023-10-31T01:55:49;95954.91;;;14.89
80537;BMP280;69867;47.074;15.404;2023-10-31T01:58:14;95961.63;;;14.93
80537;BMP280;69867;47.074;15.404;2023-10-31T02:00:40;95963.72;;;15.01
80537;BMP280;69867;47.074;15.404;2023-10-31T02:03:06;95963.41;;;15.05
80537;BMP280;69867;47.074;15.404;2023-10-31T02:05:32;95973.69;;;15.09
80537;BMP280;69867;47.074;15.404;2023-10-31T02:07:57;95970.31;;;15.07
80537;BMP280;69867;47.074;15.404;2023-10-31T02:10:22;95962.28;;;15.10
80537;BMP280;69867;47.074;15.404;2023-10-31T02:12:48;95960.59;;;15.09
80537;BMP280;69867;47.074;15.404;2023-10-31T02:15:13;95954.63;;;15.07
80537;BMP280;69867;47.074;15.404;2023-10-31T02:17:38;95958.19;;;15.05
80537;BMP280;69867;47.074;15.404;2023-10-31T02:20:04;95949.63;;;15.03
80537;BMP280;69867;47.074;15.404;2023-10-31T02:22:30;95944.38;;;15.03
80537;BMP280;69867;47.074;15.404;2023-10-31T02:24:55;95954.09;;;15.01
80537;BMP280;69867;47.074;15.404;2023-10-31T02:27:20;95944.78;;;14.97
80537;BMP280;69867;47.074;15.404;2023-10-31T02:29:46;95939.66;;;14.96
80537;BMP280;69867;47.074;15.404;2023-10-31T02:32:11;95940.59;;;14.95
80537;BMP280;69867;47.074;15.404;2023-10-31T02:34:37;95922.41;;;14.93
80537;BMP280;69867;47.074;15.404;2023-10-31T02:37:02;95925.22;;;14.90
80537;BMP280;69867;47.074;15.404;2023-10-31T02:39:27;95922.28;;;14.82
80537;BMP280;69867;47.074;15.404;2023-10-31T02:41:53;95906.78;;;14.79
80537;BMP280;69867;47.074;15.404;2023-10-31T02:44:18;95891.22;;;14.78
80537;BMP280;69867;47.074;15.404;2023-10-31T02:46:43;95885.25;;;14.76
80537;BMP280;69867;47.074;15.404;2023-10-31T02:49:09;95868.72;;;14.75
80537;BMP280;69867;47.074;15.404;2023-10-31T02:51:34;95846.25;;;14.72
80537;BMP280;69867;47.074;15.404;2023-10-31T02:53:59;95849.16;;;14.68
80537;BMP280;69867;47.074;15.404;2023-10-31T02:56:25;95842.69;;;14.61
80537;BMP280;69867;47.074;15.404;2023-10-31T02:58:50;95796.78;;;14.57
80537;BMP280;69867;47.074;15.404;2023-10-31T03:01:15;95791.75;;;14.54
80537;BMP280;69867;47.074;15.404;2023-10-31T03:03:41;95879.13;;;14.50
80537;BMP280;69867;47.074;15.404;2023-10-31T03:06:06;95901.56;;;14.39
80537;BMP280;69867;47.074;15.404;2023-10-31T03:08:31;95888.78;;;14.35
80537;BMP280;69867;47.074;15.404;2023-10-31T03:10:57;95905.50;;;14.32
80537;BMP280;69867;47.074;15.404;2023-10-31T03:13:22;95899.53;;;14.30
80537;BMP280;69867;47.074;15.404;2023-10-31T03:15:47;95884.88;;;14.28
80537;BMP280;69867;47.074;15.404;2023-10-31T03:18:13;95882.44;;;14.25
80537;BMP280;69867;47.074;15.404;2023-10-31T03:20:38;95887.38;;;14.29
80537;BMP280;69867;47.074;15.404;2023-10-31T03:23:04;95901.22;;;14.31
80537;BMP280;69867;47.074;15.404;2023-10-31T03:25:29;95921.19;;;14.32
80537;BMP280;69867;47.074;15.404;2023-10-31T03:27:54;95913.34;;;14.32
80537;BMP280;69867;47.074;15.404;2023-10-31T03:30:20;95916.88;;;14.31
80537;BMP280;69867;47.074;15.404;2023-10-31T03:32:45;95899.72;;;14.27
80537;BMP280;69867;47.074;15.404;2023-10-31T03:35:10;95892.81;;;14.26
80537;BMP280;69867;47.074;15.404;2023-10-31T03:37:36;95912.03;;;14.25
80537;BMP280;69867;47.074;15.404;2023-10-31T03:40:01;95914.84;;;14.22
80537;BMP280;69867;47.074;15.404;2023-10-31T03:42:26;95905.72;;;14.15
80537;BMP280;69867;47.074;15.404;2023-10-31T03:44:52;95900.59;;;14.14
80537;BMP280;69867;47.074;15.404;2023-10-31T03:47:17;95896.94;;;14.16
80537;BMP280;69867;47.074;15.404;2023-10-31T03:49:42;95886.59;;;14.15
80537;BMP280;69867;47.074;15.404;2023-10-31T03:52:08;95884.81;;;14.15
80537;BMP280;69867;47.074;15.404;2023-10-31T03:54:33;95877.19;;;14.12
80537;BMP280;69867;47.074;15.404;2023-10-31T03:56:58;95866.94;;;14.09
80537;BMP280;69867;47.074;15.404;2023-10-31T03:59:24;95869.56;;;14.09
80537;BMP280;69867;47.074;15.404;2023-10-31T04:01:49;95862.84;;;14.05
80537;BMP280;69867;47.074;15.404;2023-10-31T04:04:14;95855.03;;;14.05
80537;BMP280;69867;47.074;15.404;2023-10-31T04:06:40;95865.25;;;14.08
80537;BMP280;69867;47.074;15.404;2023-10-31T04:09:05;95869.56;;;14.09
80537;BMP280;69867;47.074;15.404;2023-10-31T04:11:30;95885.03;;;14.12
80537;BMP280;69867;47.074;15.404;2023-10-31T04:13:56;95877.00;;;14.15
80537;BMP280;69867;47.074;15.404;2023-10-31T04:16:21;95886.31;;;14.19
80537;BMP280;69867;47.074;15.404;2023-10-31T04:18:46;95884.72;;;14.17
80537;BMP280;69867;47.074;15.404;2023-10-31T04:21:12;95891.72;;;14.16
80537;BMP280;69867;47.074;15.404;2023-10-31T04:23:37;95901.97;;;14.19
80537;BMP280;69867;47.074;15.404;2023-10-31T04:26:02;95906.16;;;14.22
80537;BMP280;69867;47.074;15.404;2023-10-31T04:28:28;95904.50;;;14.21
80537;BMP280;69867;47.074;15.404;2023-10-31T04:30:53;95881.06;;;14.19
80537;BMP280;69867;47.074;15.404;2023-10-31T04:33:18;95916.72;;;14.20
80537;BMP280;69867;47.074;15.404;2023-10-31T04:35:44;95895.06;;;14.18
80537;BMP280;69867;47.074;15.404;2023-10-31T04:38:09;95895.91;;;14.19
80537;BMP280;69867;47.074;15.404;2023-10-31T04:40:34;95896.66;;;14.21
80537;BMP280;69867;47.074;15.404;2023-10-31T04:43:01;95888.63;;;14.24
80537;BMP280;69867;47.074;15.404;2023-10-31T04:45:26;95882.25;;;14.28
80537;BMP280;69867;47.074;15.404;2023-10-31T04:47:51;95870.97;;;14.27
80537;BMP280;69867;47.074;15.404;2023-10-31T04:50:17;95871.91;;;14.26
80537;BMP280;69867;47.074;15.404;2023-10-31T04:52:42;95879.75;;;14.26
80537;BMP280;69867;47.074;15.404;2023-10-31T04:55:07;95874.41;;;14.28
80537;BMP280;69867;47.074;15.404;2023-10-31T04:57:33;95870.03;;;14.28
80537;BMP280;69867;47.074;15.404;2023-10-31T04:59:58;95877.78;;;14.30
80537;BMP280;69867;47.074;15.404;2023-10-31T05:02:24;95880.31;;;14.31
80537;BMP280;69867;47.074;15.404;2023-10-31T05:04:49;95874.16;;;14.32
80537;BMP280;69867;47.074;15.404;2023-10-31T05:07:14;95873.31;;;14.32
80537;BMP280;69867;47.074;15.404;2023-10-31T05:09:40;95877.03;;;14.28
80537;BMP280;69867;47.074;15.404;2023-10-31T05:12:06;95886.94;;;14.23
80537;BMP280;69867;47.074;15.404;2023-10-31T05:14:31;95908.03;;;14.20
80537;BMP280;69867;47.074;15.404;2023-10-31T05:16:57;95895.28;;;14.15
80537;BMP280;69867;47.074;15.404;2023-10-31T05:19:22;95893.50;;;14.16
80537;BMP280;69867;47.074;15.404;2023-10-31T05:21:47;95900.50;;;14.15
80537;BMP280;69867;47.074;15.404;2023-10-31T05:24:13;95897.97;;;14.14
80537;BMP280;69867;47.074;15.404;2023-10-31T05:26:39;95898.09;;;14.12
80537;BMP280;69867;47.074;15.404;2023-10-31T05:29:05;95900.69;;;14.12
80537;BMP280;69867;47.074;15.404;2023-10-31T05:31:30;95907.97;;;14.07
80537;BMP280;69867;47.074;15.404;2023-10-31T05:33:56;95921.03;;;14.07
80537;BMP280;69867;47.074;15.404;2023-10-31T05:36:22;95927.00;;;14.09
80537;BMP280;69867;47.074;15.404;2023-10-31T05:38:48;95941.00;;;14.08
80537;BMP280;69867;47.074;15.404;2023-10-31T05:41:14;95952.66;;;14.02
80537;BMP280;69867;47.074;15.404;2023-10-31T05:43:39;95943.63;;;13.94
80537;BMP280;69867;47.074;15.404;2023-10-31T05:46:04;95955.84;;;13.93
80537;BMP280;69867;47.074;15.404;2023-10-31T05:48:31;95951.38;;;13.95
80537;BMP280;69867;47.074;15.404;2023-10-31T05:50:56;95966.22;;;13.95
80537;BMP280;69867;47.074;15.404;2023-10-31T05:53:21;95954.81;;;13.96
80537;BMP280;69867;47.074;15.404;2023-10-31T05:55:47;95962.66;;;13.96
80537;BMP280;69867;47.074;15.404;2023-10-31T05:58:12;95965.56;;;13.91
80537;BMP280;69867;47.074;15.404;2023-10-31T06:00:37;95962.31;;;13.88
80537;BMP280;69867;47.074;15.404;2023-10-31T06:03:03;95959.22;;;13.81
80537;BMP280;69867;47.074;15.404;2023-10-31T06:05:28;95947.75;;;13.84
80537;BMP280;69867;47.074;15.404;2023-10-31T06:07:53;95946.00;;;13.84
80537;BMP280;69867;47.074;15.404;2023-10-31T06:10:19;95937.31;;;13.84
80537;BMP280;69867;47.074;15.404;2023-10-31T06:12:44;95928.56;;;13.85
80537;BMP280;69867;47.074;15.404;2023-10-31T06:15:10;95911.84;;;13.87
80537;BMP280;69867;47.074;15.404;2023-10-31T06:17:35;95915.94;;;13.91
80537;BMP280;69867;47.074;15.404;2023-10-31T06:20:01;95907.28;;;13.91
80537;BMP280;69867;47.074;15.404;2023-10-31T06:22:27;95930.50;;;13.95
80537;BMP280;69867;47.074;15.404;2023-10-31T06:24:52;95940.66;;;14.00
80537;BMP280;69867;47.074;15.404;2023-10-31T06:27:17;95943.06;;;14.03
80537;BMP280;69867;47.074;15.404;2023-10-31T06:29:43;95960.41;;;14.04
80537;BMP280;69867;47.074;15.404;2023-10-31T06:32:08;95970.84;;;14.04
80537;BMP280;69867;47.074;15.404;2023-10-31T06:34:33;95970.66;;;14.07
80537;BMP280;69867;47.074;15.404;2023-10-31T06:36:58;95962.00;;;14.06
80537;BMP280;69867;47.074;15.404;2023-10-31T06:39:24;95951.44;;;14.08
80537;BMP280;69867;47.074;15.404;2023-10-31T06:41:49;95950.81;;;14.04
80537;BMP280;69867;47.074;15.404;2023-10-31T06:44:14;95953.97;;;14.09
80537;BMP280;69867;47.074;15.404;2023-10-31T06:46:40;95959.81;;;14.13
80537;BMP280;69867;47.074;15.404;2023-10-31T06:49:05;95971.22;;;14.12
80537;BMP280;69867;47.074;15.404;2023-10-31T06:51:30;95959.00;;;14.13
80537;BMP280;69867;47.074;15.404;2023-10-31T06:53:56;95971.84;;;14.16
80537;BMP280;69867;47.074;15.404;2023-10-31T06:56:21;95973.53;;;14.17
80537;BMP280;69867;47.074;15.404;2023-10-31T06:58:46;95975.50;;;14.13
80537;BMP280;69867;47.074;15.404;2023-10-31T07:01:12;95972.25;;;14.09
80537;BMP280;69867;47.074;15.404;2023-10-31T07:03:37;95970.47;;;14.10
80537;BMP280;69867;47.074;15.404;2023-10-31T07:06:03;95961.78;;;14.09
80537;BMP280;69867;47.074;15.404;2023-10-31T07:08:28;95955.38;;;14.01
80537;BMP280;69867;47.074;15.404;2023-10-31T07:10:53;95959.75;;;14.00
80537;BMP280;69867;47.074;15.404;2023-10-31T07:13:19;95974.50;;;14.01
80537;BMP280;69867;47.074;15.404;2023-10-31T07:15:44;95984.94;;;14.01
80537;BMP280;69867;47.074;15.404;2023-10-31T07:18:09;95981.50;;;14.01
80537;BMP280;69867;47.074;15.404;2023-10-31T07:20:35;95970.41;;;13.97
80537;BMP280;69867;47.074;15.404;2023-10-31T07:23:00;95964.53;;;13.94
80537;BMP280;69867;47.074;15.404;2023-10-31T07:25:25;95961.38;;;13.89
80537;BMP280;69867;47.074;15.404;2023-10-31T07:27:51;95950.94;;;13.89
80537;BMP280;69867;47.074;15.404;2023-10-31T07:30:16;95940.38;;;13.90
80537;BMP280;69867;47.074;15.404;2023-10-31T07:32:41;95934.13;;;13.93
80537;BMP280;69867;47.074;15.404;2023-10-31T07:35:07;95938.72;;;13.89
80537;BMP280;69867;47.074;15.404;2023-10-31T07:37:32;95946.44;;;13.91
80537;BMP280;69867;47.074;15.404;2023-10-31T07:39:58;95954.81;;;13.96
80537;BMP280;69867;47.074;15.404;2023-10-31T07:42:23;95958.28;;;13.96
80537;BMP280;69867;47.074;15.404;2023-10-31T07:44:48;95952.84;;;13.99
80537;BMP280;69867;47.074;15.404;2023-10-31T07:47:13;95937.00;;;14.02
80537;BMP280;69867;47.074;15.404;2023-10-31T07:49:39;95947.81;;;14.10
80537;BMP280;69867;47.074;15.404;2023-10-31T07:52:05;95962.97;;;14.18
80537;BMP280;69867;47.074;15.404;2023-10-31T07:54:30;95953.38;;;14.19
80537;BMP280;69867;47.074;15.404;2023-10-31T07:56:55;95939.28;;;14.21
80537;BMP280;69867;47.074;15.404;2023-10-31T07:59:21;95944.41;;;14.23
80537;BMP280;69867;47.074;15.404;2023-10-31T08:01:46;95939.09;;;14.24
80537;BMP280;69867;47.074;15.404;2023-10-31T08:04:11;95950.84;;;14.31
80537;BMP280;69867;47.074;15.404;2023-10-31T08:06:37;95949.16;;;14.45
80537;BMP280;69867;47.074;15.404;2023-10-31T08:09:02;95950.53;;;14.50
80537;BMP280;69867;47.074;15.404;2023-10-31T08:11:28;95950.03;;;14.58
80537;BMP280;69867;47.074;15.404;2023-10-31T08:13:53;95943.88;;;14.59
80537;BMP280;69867;47.074;15.404;2023-10-31T08:16:19;95941.56;;;14.54
80537;BMP280;69867;47.074;15.404;2023-10-31T08:18:46;95947.81;;;14.52
80537;BMP280;69867;47.074;15.404;2023-10-31T08:21:11;95937.06;;;14.56
80537;BMP280;69867;47.074;15.404;2023-10-31T08:23:37;95936.63;;;14.50
80537;BMP280;69867;47.074;15.404;2023-10-31T08:26:02;95923.91;;;14.58
80537;BMP280;69867;47.074;15.404;2023-10-31T08:28:28;95924.53;;;14.61
80537;BMP280;69867;47.074;15.404;2023-10-31T08:30:53;95918.28;;;14.64
80537;BMP280;69867;47.074;15.404;2023-10-31T08:33:18;95928.63;;;14.65
80537;BMP280;69867;47.074;15.404;2023-10-31T08:35:45;95936.38;;;14.67
80537;BMP280;69867;47.074;15.404;2023-10-31T08:38:10;95955.50;;;14.67
80537;BMP280;69867;47.074;15.404;2023-10-31T08:40:36;95958.84;;;14.69
80537;BMP280;69867;47.074;15.404;2023-10-31T08:43:01;95954.47;;;14.70
80537;BMP280;69867;47.074;15.404;2023-10-31T08:45:26;95954.47;;;14.70
80537;BMP280;69867;47.074;15.404;2023-10-31T08:47:52;95951.84;;;14.70
80537;BMP280;69867;47.074;15.404;2023-10-31T08:50:17;95964.28;;;14.66
80537;BMP280;69867;47.074;15.404;2023-10-31T08:52:42;95960.19;;;14.62
80537;BMP280;69867;47.074;15.404;2023-10-31T08:55:08;95960.59;;;14.56
80537;BMP280;69867;47.074;15.404;2023-10-31T08:57:33;95959.94;;;14.53
80537;BMP280;69867;47.074;15.404;2023-10-31T08:59:59;95956.78;;;14.48
80537;BMP280;69867;47.074;15.404;2023-10-31T09:02:25;95945.03;;;14.40
80537;BMP280;69867;47.074;15.404;2023-10-31T09:04:50;95956.63;;;14.36
80537;BMP280;69867;47.074;15.404;2023-10-31T09:07:15;95982.38;;;14.28
80537;BMP280;69867;47.074;15.404;2023-10-31T09:09:41;95970.53;;;14.23
80537;BMP280;69867;47.074;15.404;2023-10-31T09:12:06;95978.00;;;14.15
80537;BMP280;69867;47.074;15.404;2023-10-31T09:14:32;95979.25;;;14.09
80537;BMP280;69867;47.074;15.404;2023-10-31T09:16:57;95994.25;;;14.05
80537;BMP280;69867;47.074;15.404;2023-10-31T09:19:23;96000.50;;;14.03
80537;BMP280;69867;47.074;15.404;2023-10-31T09:21:48;96005.00;;;14.01
80537;BMP280;69867;47.074;15.404;2023-10-31T09:24:13;96009.28;;;14.02
80537;BMP280;69867;47.074;15.404;2023-10-31T09:26:42;96032.78;;;14.02
80537;BMP280;69867;47.074;15.404;2023-10-31T09:29:07;96099.00;;;14.15
80537;BMP280;69867;47.074;15.404;2023-10-31T09:31:33;96097.88;;;14.05
80537;BMP280;69867;47.074;15.404;2023-10-31T09:33:58;96087.13;;;13.67
80537;BMP280;69867;47.074;15.404;2023-10-31T09:36:23;96072.84;;;13.44
80537;BMP280;69867;47.074;15.404;2023-10-31T09:38:48;96061.22;;;13.20
80537;BMP280;69867;47.074;15.404;2023-10-31T09:41:14;96078.28;;;13.09
80537;BMP280;69867;47.074;15.404;2023-10-31T09:43:40;96103.13;;;13.17
80537;BMP280;69867;47.074;15.404;2023-10-31T09:46:05;96137.25;;;12.96
80537;BMP280;69867;47.074;15.404;2023-10-31T09:48:31;96133.28;;;12.89
80537;BMP280;69867;47.074;15.404;2023-10-31T09:50:58;96156.94;;;12.86
80537;BMP280;69867;47.074;15.404;2023-10-31T09:53:23;96151.63;;;12.88
80537;BMP280;69867;47.074;15.404;2023-10-31T09:55:49;96152.06;;;12.80
80537;BMP280;69867;47.074;15.404;2023-10-31T09:58:15;96168.63;;;12.79
80537;BMP280;69867;47.074;15.404;2023-10-31T10:00:40;96163.56;;;12.76
80537;BMP280;69867;47.074;15.404;2023-10-31T10:03:09;96169.38;;;12.81
80537;BMP280;69867;47.074;15.404;2023-10-31T10:05:38;96172.22;;;12.92
80537;BMP280;69867;47.074;15.404;2023-10-31T10:08:04;96155.41;;;12.82
80537;BMP280;69867;47.074;15.404;2023-10-31T10:10:29;96144.16;;;12.81
80537;BMP280;69867;47.074;15.404;2023-10-31T10:12:55;96142.63;;;12.62
80537;BMP280;69867;47.074;15.404;2023-10-31T10:15:21;96116.91;;;12.56
80537;BMP280;69867;47.074;15.404;2023-10-31T10:17:50;96127.50;;;12.53
80537;BMP280;69867;47.074;15.404;2023-10-31T10:20:16;96127.16;;;12.59
80537;BMP280;69867;47.074;15.404;2023-10-31T10:22:42;96121.19;;;12.72
80537;BMP280;69867;47.074;15.404;2023-10-31T10:25:14;96140.19;;;12.59
80537;BMP280;69867;47.074;15.404;2023-10-31T10:27:39;96122.53;;;12.64
80537;BMP280;69867;47.074;15.404;2023-10-31T10:30:05;96102.28;;;12.37
80537;BMP280;69867;47.074;15.404;2023-10-31T10:32:31;96102.06;;;12.09
80537;BMP280;69867;47.074;15.404;2023-10-31T10:34:56;96106.19;;;11.80
80537;BMP280;69867;47.074;15.404;2023-10-31T10:37:21;96106.88;;;11.83
80537;BMP280;69867;47.074;15.404;2023-10-31T10:39:48;96110.78;;;11.75
80537;BMP280;69867;47.074;15.404;2023-10-31T10:42:16;96134.94;;;11.60
80537;BMP280;69867;47.074;15.404;2023-10-31T10:44:44;96104.03;;;11.53
80537;BMP280;69867;47.074;15.404;2023-10-31T10:47:12;96085.44;;;11.44
80537;BMP280;69867;47.074;15.404;2023-10-31T10:49:41;96082.91;;;11.42
80537;BMP280;69867;47.074;15.404;2023-10-31T10:52:22;96043.38;;;11.36
80537;BMP280;69867;47.074;15.404;2023-10-31T10:55:51;96050.06;;;11.24
80537;BMP280;69867;47.074;15.404;2023-10-31T11:00:26;95999.03;;;11.39
80537;BMP280;69867;47.074;15.404;2023-10-31T11:02:56;95966.25;;;11.52
80537;BMP280;69867;47.074;15.404;2023-10-31T11:05:23;95930.53;;;11.55
80537;BMP280;69867;47.074;15.404;2023-10-31T11:07:49;95954.53;;;11.61
80537;BMP280;69867;47.074;15.404;2023-10-31T11:10:15;95972.72;;;11.61
80537;BMP280;69867;47.074;15.404;2023-10-31T11:12:41;95977.09;;;11.77
80537;BMP280;69867;47.074;15.404;2023-10-31T11:15:08;95999.28;;;11.84
80537;BMP280;69867;47.074;15.404;2023-10-31T11:17:37;96013.72;;;11.90
80537;BMP280;69867;47.074;15.404;2023-10-31T11:20:04;96023.97;;;11.93
80537;BMP280;69867;47.074;15.404;2023-10-31T11:22:40;96016.22;;;11.92
80537;BMP280;69867;47.074;15.404;2023-10-31T11:25:07;96011.94;;;11.91
80537;BMP280;69867;47.074;15.404;2023-10-31T11:27:36;96036.06;;;11.94
80537;BMP280;69867;47.074;15.404;2023-10-31T11:30:04;96047.66;;;12.04
80537;BMP280;69867;47.074;15.404;2023-10-31T11:32:32;96077.03;;;12.06
80537;BMP280;69867;47.074;15.404;2023-10-31T11:34:57;96075.88;;;12.12
80537;BMP280;69867;47.074;15.404;2023-10-31T11:37:24;96098.53;;;12.10
80537;BMP280;69867;47.074;15.404;2023-10-31T11:40:19;96131.78;;;12.05
80537;BMP280;69867;47.074;15.404;2023-10-31T11:42:52;96130.09;;;12.04
80537;BMP280;69867;47.074;15.404;2023-10-31T11:45:28;96147.44;;;12.21
80537;BMP280;69867;47.074;15.404;2023-10-31T11:47:53;96150.66;;;12.26
80537;BMP280;69867;47.074;15.404;2023-10-31T11:50:19;96126.69;;;12.19
80537;BMP280;69867;47.074;15.404;2023-10-31T11:52:44;96128.53;;;12.17
80537;BMP280;69867;47.074;15.404;2023-10-31T11:55:13;96115.78;;;12.12
80537;BMP280;69867;47.074;15.404;2023-10-31T11:57:39;96108.72;;;12.14
80537;BMP280;69867;47.074;15.404;2023-10-31T12:00:05;96112.31;;;12.12
80537;BMP280;69867;47.074;15.404;2023-10-31T12:02:31;96113.16;;;12.12
80537;BMP280;69867;47.074;15.404;2023-10-31T12:05:07;96095.50;;;12.02
80537;BMP280;69867;47.074;15.404;2023-10-31T12:07:43;96105.53;;;12.09
80537;BMP280;69867;47.074;15.404;2023-10-31T12:10:08;96116.69;;;12.11
80537;BMP280;69867;47.074;15.404;2023-10-31T12:12:34;96124.75;;;12.07
80537;BMP280;69867;47.074;15.404;2023-10-31T12:15:08;96122.41;;;12.18
80537;BMP280;69867;47.074;15.404;2023-10-31T12:17:35;96117.38;;;12.15
80537;BMP280;69867;47.074;15.404;2023-10-31T12:20:08;96126.03;;;12.15
80537;BMP280;69867;47.074;15.404;2023-10-31T12:22:34;96128.47;;;12.18
80537;BMP280;69867;47.074;15.404;2023-10-31T12:25:10;96148.44;;;12.18
80537;BMP280;69867;47.074;15.404;2023-10-31T12:27:42;96160.53;;;12.19
80537;BMP280;69867;47.074;15.404;2023-10-31T12:30:08;96171.72;;;12.21
80537;BMP280;69867;47.074;15.404;2023-10-31T12:32:34;96206.66;;;12.17
80537;BMP280;69867;47.074;15.404;2023-10-31T12:34:59;96224.72;;;12.20
80537;BMP280;69867;47.074;15.404;2023-10-31T12:37:24;96194.88;;;12.10
80537;BMP280;69867;47.074;15.404;2023-10-31T12:39:50;96197.47;;;12.10
80537;BMP280;69867;47.074;15.404;2023-10-31T12:42:15;96207.22;;;11.89
80537;BMP280;69867;47.074;15.404;2023-10-31T12:44:42;96209.81;;;11.89
80537;BMP280;69867;47.074;15.404;2023-10-31T12:47:07;96214.50;;;11.82
80537;BMP280;69867;47.074;15.404;2023-10-31T12:49:32;96220.69;;;11.80
80537;BMP280;69867;47.074;15.404;2023-10-31T12:52:00;96229.53;;;11.76
80537;BMP280;69867;47.074;15.404;2023-10-31T12:54:32;96264.00;;;11.81
80537;BMP280;69867;47.074;15.404;2023-10-31T12:57:05;96272.81;;;11.78
80537;BMP280;69867;47.074;15.404;2023-10-31T12:59:36;96283.84;;;11.83
80537;BMP280;69867;47.074;15.404;2023-10-31T13:02:02;96296.16;;;11.80
80537;BMP280;69867;47.074;15.404;2023-10-31T13:04:28;96287.50;;;11.79
80537;BMP280;69867;47.074;15.404;2023-10-31T13:06:58;96279.31;;;11.68
80537;BMP280;69867;47.074;15.404;2023-10-31T13:09:28;96277.38;;;11.54
80537;BMP280;69867;47.074;15.404;2023-10-31T13:11:57;96263.75;;;11.49
80537;BMP280;69867;47.074;15.404;2023-10-31T13:14:22;96262.91;;;11.49
80537;BMP280;69867;47.074;15.404;2023-10-31T13:16:48;96259.97;;;11.38
80537;BMP280;69867;47.074;15.404;2023-10-31T13:19:13;96262.38;;;11.42
80537;BMP280;69867;47.074;15.404;2023-10-31T13:21:38;96262.94;;;11.30
80537;BMP280;69867;47.074;15.404;2023-10-31T13:24:04;96259.09;;;11.20
80537;BMP280;69867;47.074;15.404;2023-10-31T13:26:30;96261.78;;;11.18
80537;BMP280;69867;47.074;15.404;2023-10-31T13:28:55;96274.50;;;11.06
80537;BMP280;69867;47.074;15.404;2023-10-31T13:31:20;96285.81;;;11.05
80537;BMP280;69867;47.074;15.404;2023-10-31T13:33:45;96306.09;;;10.97
80537;BMP280;69867;47.074;15.404;2023-10-31T13:36:11;96320.22;;;10.91
80537;BMP280;69867;47.074;15.404;2023-10-31T13:38:36;96343.88;;;10.85
80537;BMP280;69867;47.074;15.404;2023-10-31T13:41:02;96347.53;;;10.81
80537;BMP280;69867;47.074;15.404;2023-10-31T13:43:27;96368.31;;;10.81
80537;BMP280;69867;47.074;15.404;2023-10-31T13:45:52;96369.28;;;10.78
80537;BMP280;69867;47.074;15.404;2023-10-31T13:48:18;96386.69;;;10.76
80537;BMP280;69867;47.074;15.404;2023-10-31T13:50:43;96411.84;;;10.76
80537;BMP280;69867;47.074;15.404;2023-10-31T13:53:08;96429.63;;;10.65